sensor_id;sensor_type;location;lat;lon;timestamp;P1;durP1;ratioP1;P2;durP2;ratioP2
17361;SDS011;8798;51.938;4.348;2023-02-18T00:01:21;13.43;;;5.33;;
17361;SDS011;8798;51.938;4.348;2023-02-18T00:03:50;11.13;;;5.00;;
17361;SDS011;8798;51.938;4.348;2023-02-18T00:06:19;13.50;;;5.60;;
17361;SDS011;8798;51.938;4.348;2023-02-18T00:08:48;10.77;;;5.00;;
17361;SDS011;8798;51.938;4.348;2023-02-18T00:11:19;10.73;;;5.10;;
17361;SDS011;8798;51.938;4.348;2023-02-18T00:13:48;11.37;;;5.10;;
17361;SDS011;8798;51.938;4.348;2023-02-18T00:16:17;9.40;;;4.13;;
17361;SDS011;8798;51.938;4.348;2023-02-18T00:18:45;12.17;;;4.83;;
17361;SDS011;8798;51.938;4.348;2023-02-18T00:21:13;11.83;;;5.17;;
17361;SDS011;8798;51.938;4.348;2023-02-18T00:23:41;13.00;;;5.50;;
17361;SDS011;8798;51.938;4.348;2023-02-18T00:26:10;10.33;;;4.97;;
17361;SDS011;8798;51.938;4.348;2023-02-18T00:28:40;14.33;;;5.63;;
17361;SDS011;8798;51.938;4.348;2023-02-18T00:31:09;10.47;;;5.20;;
17361;SDS011;8798;51.938;4.348;2023-02-18T00:33:39;12.60;;;5.10;;
17361;SDS011;8798;51.938;4.348;2023-02-18T00:36:08;8.03;;;3.97;;
17361;SDS011;8798;51.938;4.348;2023-02-18T00:38:37;10.47;;;5.07;;
17361;SDS011;8798;51.938;4.348;2023-02-18T00:41:06;11.20;;;5.13;;
17361;SDS011;8798;51.938;4.348;2023-02-18T00:43:33;11.77;;;4.90;;
17361;SDS011;8798;51.938;4.348;2023-02-18T00:46:03;11.53;;;5.43;;
17361;SDS011;8798;51.938;4.348;2023-02-18T00:48:32;12.07;;;5.07;;
17361;SDS011;8798;51.938;4.348;2023-02-18T00:51:00;12.33;;;5.00;;
17361;SDS011;8798;51.938;4.348;2023-02-18T00:53:28;12.80;;;5.57;;
17361;SDS011;8798;51.938;4.348;2023-02-18T00:55:57;10.70;;;4.50;;
17361;SDS011;8798;51.938;4.348;2023-02-18T00:58:25;6.63;;;3.77;;
17361;SDS011;8798;51.938;4.348;2023-02-18T01:00:53;9.27;;;4.80;;
17361;SDS011;8798;51.938;4.348;2023-02-18T01:03:23;13.67;;;4.30;;
17361;SDS011;8798;51.938;4.348;2023-02-18T01:05:51;12.27;;;5.47;;
17361;SDS011;8798;51.938;4.348;2023-02-18T01:08:20;14.17;;;5.33;;
17361;SDS011;8798;51.938;4.348;2023-02-18T01:10:49;12.97;;;4.97;;
17361;SDS011;8798;51.938;4.348;2023-02-18T01:13:20;13.03;;;5.70;;
17361;SDS011;8798;51.938;4.348;2023-02-18T01:15:49;11.80;;;5.50;;
17361;SDS011;8798;51.938;4.348;2023-02-18T01:18:17;15.77;;;5.53;;
17361;SDS011;8798;51.938;4.348;2023-02-18T01:20:46;11.70;;;5.10;;
17361;SDS011;8798;51.938;4.348;2023-02-18T01:23:15;9.80;;;4.83;;
17361;SDS011;8798;51.938;4.348;2023-02-18T01:25:43;13.87;;;5.50;;
17361;SDS011;8798;51.938;4.348;2023-02-18T01:28:13;12.23;;;5.37;;
17361;SDS011;8798;51.938;4.348;2023-02-18T01:30:41;9.03;;;5.00;;
17361;SDS011;8798;51.938;4.348;2023-02-18T01:33:09;10.20;;;5.07;;
17361;SDS011;8798;51.938;4.348;2023-02-18T01:35:37;15.20;;;5.30;;
17361;SDS011;8798;51.938;4.348;2023-02-18T01:38:08;11.90;;;5.00;;
17361;SDS011;8798;51.938;4.348;2023-02-18T01:40:42;13.47;;;5.93;;
17361;SDS011;8798;51.938;4.348;2023-02-18T01:43:13;10.83;;;5.10;;
17361;SDS011;8798;51.938;4.348;2023-02-18T01:45:48;14.13;;;5.47;;
17361;SDS011;8798;51.938;4.348;2023-02-18T01:48:35;14.13;;;5.80;;
17361;SDS011;8798;51.938;4.348;2023-02-18T01:51:08;13.47;;;5.20;;
17361;SDS011;8798;51.938;4.348;2023-02-18T01:53:42;13.87;;;5.73;;
17361;SDS011;8798;51.938;4.348;2023-02-18T01:56:17;14.57;;;5.73;;
17361;SDS011;8798;51.938;4.348;2023-02-18T01:58:50;11.13;;;4.83;;
17361;SDS011;8798;51.938;4.348;2023-02-18T02:01:21;12.00;;;5.13;;
17361;SDS011;8798;51.938;4.348;2023-02-18T02:03:50;12.00;;;5.33;;
17361;SDS011;8798;51.938;4.348;2023-02-18T02:06:19;10.93;;;4.50;;
17361;SDS011;8798;51.938;4.348;2023-02-18T02:08:51;13.57;;;5.20;;
17361;SDS011;8798;51.938;4.348;2023-02-18T02:11:23;13.93;;;5.40;;
17361;SDS011;8798;51.938;4.348;2023-02-18T02:14:06;13.53;;;5.17;;
17361;SDS011;8798;51.938;4.348;2023-02-18T02:16:44;15.37;;;6.00;;
17361;SDS011;8798;51.938;4.348;2023-02-18T02:19:28;10.10;;;5.00;;
17361;SDS011;8798;51.938;4.348;2023-02-18T02:25:17;12.00;;;5.17;;
17361;SDS011;8798;51.938;4.348;2023-02-18T02:31:17;9.77;;;3.77;;
17361;SDS011;8798;51.938;4.348;2023-02-18T02:34:20;9.60;;;3.90;;
17361;SDS011;8798;51.938;4.348;2023-02-18T02:36:55;11.13;;;4.17;;
17361;SDS011;8798;51.938;4.348;2023-02-18T02:39:37;9.60;;;3.73;;
17361;SDS011;8798;51.938;4.348;2023-02-18T02:42:15;7.57;;;3.73;;
17361;SDS011;8798;51.938;4.348;2023-02-18T02:44:53;5.87;;;3.10;;
17361;SDS011;8798;51.938;4.348;2023-02-18T02:47:25;6.87;;;3.27;;
17361;SDS011;8798;51.938;4.348;2023-02-18T02:50:02;5.50;;;2.60;;
17361;SDS011;8798;51.938;4.348;2023-02-18T02:52:33;11.13;;;4.70;;
17361;SDS011;8798;51.938;4.348;2023-02-18T02:55:07;10.03;;;4.70;;
17361;SDS011;8798;51.938;4.348;2023-02-18T02:57:40;10.10;;;4.73;;
17361;SDS011;8798;51.938;4.348;2023-02-18T03:00:11;11.70;;;5.20;;
17361;SDS011;8798;51.938;4.348;2023-02-18T03:02:44;11.47;;;4.83;;
17361;SDS011;8798;51.938;4.348;2023-02-18T03:05:37;10.17;;;4.77;;
17361;SDS011;8798;51.938;4.348;2023-02-18T03:08:24;8.03;;;3.43;;
17361;SDS011;8798;51.938;4.348;2023-02-18T03:11:05;8.07;;;3.63;;
17361;SDS011;8798;51.938;4.348;2023-02-18T03:13:43;9.13;;;3.60;;
17361;SDS011;8798;51.938;4.348;2023-02-18T03:16:22;8.23;;;4.00;;
17361;SDS011;8798;51.938;4.348;2023-02-18T03:18:58;8.87;;;3.57;;
17361;SDS011;8798;51.938;4.348;2023-02-18T03:21:32;8.73;;;4.00;;
17361;SDS011;8798;51.938;4.348;2023-02-18T03:24:06;7.20;;;3.40;;
17361;SDS011;8798;51.938;4.348;2023-02-18T03:26:44;10.50;;;4.07;;
17361;SDS011;8798;51.938;4.348;2023-02-18T03:29:15;8.97;;;3.40;;
17361;SDS011;8798;51.938;4.348;2023-02-18T03:31:46;8.07;;;3.60;;
17361;SDS011;8798;51.938;4.348;2023-02-18T03:34:19;6.93;;;3.07;;
17361;SDS011;8798;51.938;4.348;2023-02-18T03:36:53;6.93;;;3.37;;
17361;SDS011;8798;51.938;4.348;2023-02-18T03:39:22;4.77;;;2.63;;
17361;SDS011;8798;51.938;4.348;2023-02-18T03:41:53;7.63;;;2.73;;
17361;SDS011;8798;51.938;4.348;2023-02-18T03:44:21;4.50;;;2.23;;
17361;SDS011;8798;51.938;4.348;2023-02-18T03:46:50;6.37;;;2.93;;
17361;SDS011;8798;51.938;4.348;2023-02-18T03:49:19;6.07;;;2.40;;
17361;SDS011;8798;51.938;4.348;2023-02-18T03:51:47;5.00;;;2.30;;
17361;SDS011;8798;51.938;4.348;2023-02-18T03:54:16;5.43;;;2.50;;
17361;SDS011;8798;51.938;4.348;2023-02-18T03:56:44;5.43;;;3.17;;
17361;SDS011;8798;51.938;4.348;2023-02-18T03:59:12;6.40;;;2.67;;
17361;SDS011;8798;51.938;4.348;2023-02-18T04:01:40;6.00;;;2.97;;
17361;SDS011;8798;51.938;4.348;2023-02-18T04:04:08;10.00;;;3.30;;
17361;SDS011;8798;51.938;4.348;2023-02-18T04:06:35;7.53;;;3.60;;
17361;SDS011;8798;51.938;4.348;2023-02-18T04:09:03;7.33;;;3.87;;
17361;SDS011;8798;51.938;4.348;2023-02-18T04:11:36;8.13;;;4.07;;
17361;SDS011;8798;51.938;4.348;2023-02-18T04:14:06;11.57;;;4.27;;
17361;SDS011;8798;51.938;4.348;2023-02-18T04:16:34;6.70;;;3.47;;
17361;SDS011;8798;51.938;4.348;2023-02-18T04:19:02;9.43;;;4.27;;
17361;SDS011;8798;51.938;4.348;2023-02-18T04:21:30;10.07;;;4.03;;
17361;SDS011;8798;51.938;4.348;2023-02-18T04:23:58;12.17;;;4.00;;
17361;SDS011;8798;51.938;4.348;2023-02-18T04:26:26;7.43;;;3.43;;
17361;SDS011;8798;51.938;4.348;2023-02-18T04:28:55;8.60;;;3.53;;
17361;SDS011;8798;51.938;4.348;2023-02-18T04:31:23;9.07;;;3.77;;
17361;SDS011;8798;51.938;4.348;2023-02-18T04:33:51;10.30;;;4.03;;
17361;SDS011;8798;51.938;4.348;2023-02-18T04:36:19;9.20;;;4.13;;
17361;SDS011;8798;51.938;4.348;2023-02-18T04:38:47;9.53;;;3.70;;
17361;SDS011;8798;51.938;4.348;2023-02-18T04:41:15;11.97;;;3.90;;
17361;SDS011;8798;51.938;4.348;2023-02-18T04:43:42;6.13;;;3.33;;
17361;SDS011;8798;51.938;4.348;2023-02-18T04:46:12;7.20;;;3.37;;
17361;SDS011;8798;51.938;4.348;2023-02-18T04:48:40;8.43;;;3.73;;
17361;SDS011;8798;51.938;4.348;2023-02-18T04:51:08;8.27;;;4.13;;
17361;SDS011;8798;51.938;4.348;2023-02-18T04:53:36;6.03;;;3.30;;
17361;SDS011;8798;51.938;4.348;2023-02-18T04:56:04;10.33;;;3.50;;
17361;SDS011;8798;51.938;4.348;2023-02-18T04:58:32;6.97;;;3.73;;
17361;SDS011;8798;51.938;4.348;2023-02-18T05:01:00;7.70;;;3.57;;
17361;SDS011;8798;51.938;4.348;2023-02-18T05:03:30;7.23;;;3.80;;
17361;SDS011;8798;51.938;4.348;2023-02-18T05:05:59;11.03;;;4.40;;
17361;SDS011;8798;51.938;4.348;2023-02-18T05:08:27;12.17;;;4.03;;
17361;SDS011;8798;51.938;4.348;2023-02-18T05:10:55;11.37;;;4.47;;
17361;SDS011;8798;51.938;4.348;2023-02-18T05:13:23;10.63;;;4.63;;
17361;SDS011;8798;51.938;4.348;2023-02-18T05:15:51;9.40;;;4.50;;
17361;SDS011;8798;51.938;4.348;2023-02-18T05:18:19;7.70;;;4.07;;
17361;SDS011;8798;51.938;4.348;2023-02-18T05:20:48;9.43;;;4.33;;
17361;SDS011;8798;51.938;4.348;2023-02-18T05:23:16;14.80;;;4.00;;
17361;SDS011;8798;51.938;4.348;2023-02-18T05:25:45;10.73;;;4.60;;
17361;SDS011;8798;51.938;4.348;2023-02-18T05:28:13;7.87;;;3.50;;
17361;SDS011;8798;51.938;4.348;2023-02-18T05:30:41;11.63;;;4.70;;
17361;SDS011;8798;51.938;4.348;2023-02-18T05:33:09;10.30;;;4.27;;
17361;SDS011;8798;51.938;4.348;2023-02-18T05:35:37;12.23;;;4.50;;
17361;SDS011;8798;51.938;4.348;2023-02-18T05:38:06;11.43;;;4.50;;
17361;SDS011;8798;51.938;4.348;2023-02-18T05:40:35;10.67;;;3.63;;
17361;SDS011;8798;51.938;4.348;2023-02-18T05:43:03;13.13;;;5.00;;
17361;SDS011;8798;51.938;4.348;2023-02-18T05:45:31;9.80;;;4.30;;
17361;SDS011;8798;51.938;4.348;2023-02-18T05:47:58;14.03;;;4.37;;
17361;SDS011;8798;51.938;4.348;2023-02-18T05:50:26;13.30;;;5.07;;
17361;SDS011;8798;51.938;4.348;2023-02-18T05:52:54;11.83;;;4.23;;
17361;SDS011;8798;51.938;4.348;2023-02-18T05:55:24;14.40;;;4.83;;
17361;SDS011;8798;51.938;4.348;2023-02-18T05:57:51;10.13;;;4.60;;
17361;SDS011;8798;51.938;4.348;2023-02-18T06:00:19;16.23;;;5.13;;
17361;SDS011;8798;51.938;4.348;2023-02-18T06:02:48;15.67;;;4.77;;
17361;SDS011;8798;51.938;4.348;2023-02-18T06:05:16;12.43;;;4.10;;
17361;SDS011;8798;51.938;4.348;2023-02-18T06:07:44;13.83;;;4.33;;
17361;SDS011;8798;51.938;4.348;2023-02-18T06:10:11;15.97;;;4.60;;
17361;SDS011;8798;51.938;4.348;2023-02-18T06:12:41;16.60;;;4.50;;
17361;SDS011;8798;51.938;4.348;2023-02-18T06:15:09;13.27;;;4.00;;
17361;SDS011;8798;51.938;4.348;2023-02-18T06:17:37;14.27;;;4.13;;
17361;SDS011;8798;51.938;4.348;2023-02-18T06:20:05;14.20;;;4.20;;
17361;SDS011;8798;51.938;4.348;2023-02-18T06:22:34;12.30;;;3.90;;
17361;SDS011;8798;51.938;4.348;2023-02-18T06:25:02;9.03;;;3.23;;
17361;SDS011;8798;51.938;4.348;2023-02-18T06:27:30;15.93;;;3.63;;
17361;SDS011;8798;51.938;4.348;2023-02-18T06:29:59;10.80;;;3.00;;
17361;SDS011;8798;51.938;4.348;2023-02-18T06:32:27;10.53;;;3.20;;
17361;SDS011;8798;51.938;4.348;2023-02-18T06:34:54;16.63;;;3.37;;
17361;SDS011;8798;51.938;4.348;2023-02-18T06:37:22;8.20;;;3.23;;
17361;SDS011;8798;51.938;4.348;2023-02-18T06:39:50;7.83;;;1.90;;
17361;SDS011;8798;51.938;4.348;2023-02-18T06:42:18;9.67;;;2.53;;
17361;SDS011;8798;51.938;4.348;2023-02-18T06:44:46;12.43;;;2.47;;
17361;SDS011;8798;51.938;4.348;2023-02-18T06:47:15;8.00;;;2.30;;
17361;SDS011;8798;51.938;4.348;2023-02-18T06:49:45;13.97;;;2.93;;
17361;SDS011;8798;51.938;4.348;2023-02-18T06:52:13;14.90;;;2.80;;
17361;SDS011;8798;51.938;4.348;2023-02-18T06:54:41;13.30;;;2.53;;
17361;SDS011;8798;51.938;4.348;2023-02-18T06:57:09;8.00;;;2.03;;
17361;SDS011;8798;51.938;4.348;2023-02-18T06:59:37;12.47;;;2.43;;
17361;SDS011;8798;51.938;4.348;2023-02-18T07:02:05;19.03;;;2.60;;
17361;SDS011;8798;51.938;4.348;2023-02-18T07:04:34;17.90;;;2.40;;
17361;SDS011;8798;51.938;4.348;2023-02-18T07:07:02;11.57;;;2.37;;
17361;SDS011;8798;51.938;4.348;2023-02-18T07:09:30;12.13;;;2.50;;
17361;SDS011;8798;51.938;4.348;2023-02-18T07:11:58;10.27;;;1.83;;
17361;SDS011;8798;51.938;4.348;2023-02-18T07:14:26;13.47;;;2.33;;
17361;SDS011;8798;51.938;4.348;2023-02-18T07:16:54;9.80;;;2.00;;
17361;SDS011;8798;51.938;4.348;2023-02-18T07:19:22;11.27;;;1.97;;
17361;SDS011;8798;51.938;4.348;2023-02-18T07:21:51;12.03;;;2.57;;
17361;SDS011;8798;51.938;4.348;2023-02-18T07:24:19;10.80;;;2.17;;
17361;SDS011;8798;51.938;4.348;2023-02-18T07:26:47;10.93;;;1.93;;
17361;SDS011;8798;51.938;4.348;2023-02-18T07:29:15;14.97;;;2.53;;
17361;SDS011;8798;51.938;4.348;2023-02-18T07:31:43;11.90;;;2.60;;
17361;SDS011;8798;51.938;4.348;2023-02-18T07:34:11;10.80;;;2.10;;
17361;SDS011;8798;51.938;4.348;2023-02-18T07:36:38;17.60;;;2.47;;
17361;SDS011;8798;51.938;4.348;2023-02-18T07:39:07;14.27;;;2.20;;
17361;SDS011;8798;51.938;4.348;2023-02-18T07:41:35;12.37;;;1.67;;
17361;SDS011;8798;51.938;4.348;2023-02-18T07:44:03;15.37;;;2.57;;
17361;SDS011;8798;51.938;4.348;2023-02-18T07:46:31;15.07;;;2.53;;
17361;SDS011;8798;51.938;4.348;2023-02-18T07:48:59;7.93;;;1.80;;
17361;SDS011;8798;51.938;4.348;2023-02-18T07:51:27;13.77;;;1.97;;
17361;SDS011;8798;51.938;4.348;2023-02-18T07:53:55;9.93;;;2.00;;
17361;SDS011;8798;51.938;4.348;2023-02-18T07:56:24;8.87;;;2.47;;
17361;SDS011;8798;51.938;4.348;2023-02-18T07:58:52;17.77;;;2.80;;
17361;SDS011;8798;51.938;4.348;2023-02-18T08:01:20;13.07;;;2.63;;
17361;SDS011;8798;51.938;4.348;2023-02-18T08:03:48;9.27;;;2.13;;
17361;SDS011;8798;51.938;4.348;2023-02-18T08:06:19;13.10;;;2.47;;
17361;SDS011;8798;51.938;4.348;2023-02-18T08:08:49;13.10;;;2.33;;
17361;SDS011;8798;51.938;4.348;2023-02-18T08:11:17;15.03;;;2.37;;
17361;SDS011;8798;51.938;4.348;2023-02-18T08:13:46;12.20;;;2.37;;
17361;SDS011;8798;51.938;4.348;2023-02-18T08:16:14;10.07;;;1.90;;
17361;SDS011;8798;51.938;4.348;2023-02-18T08:18:42;15.67;;;2.03;;
17361;SDS011;8798;51.938;4.348;2023-02-18T08:21:10;9.43;;;2.20;;
17361;SDS011;8798;51.938;4.348;2023-02-18T08:23:38;14.57;;;2.20;;
17361;SDS011;8798;51.938;4.348;2023-02-18T08:26:06;8.50;;;1.80;;
17361;SDS011;8798;51.938;4.348;2023-02-18T08:28:35;10.90;;;1.87;;
17361;SDS011;8798;51.938;4.348;2023-02-18T08:31:04;9.43;;;1.57;;
17361;SDS011;8798;51.938;4.348;2023-02-18T08:33:32;12.07;;;2.10;;
17361;SDS011;8798;51.938;4.348;2023-02-18T08:36:00;6.37;;;1.53;;
17361;SDS011;8798;51.938;4.348;2023-02-18T08:38:35;9.97;;;1.93;;
17361;SDS011;8798;51.938;4.348;2023-02-18T08:41:05;8.20;;;1.63;;
17361;SDS011;8798;51.938;4.348;2023-02-18T08:43:34;10.60;;;1.93;;
17361;SDS011;8798;51.938;4.348;2023-02-18T08:46:02;13.67;;;2.20;;
17361;SDS011;8798;51.938;4.348;2023-02-18T08:48:32;10.73;;;1.50;;
17361;SDS011;8798;51.938;4.348;2023-02-18T08:51:09;7.73;;;1.73;;
17361;SDS011;8798;51.938;4.348;2023-02-18T08:53:38;9.90;;;2.03;;
17361;SDS011;8798;51.938;4.348;2023-02-18T08:56:06;10.07;;;2.07;;
17361;SDS011;8798;51.938;4.348;2023-02-18T08:58:35;7.53;;;1.67;;
17361;SDS011;8798;51.938;4.348;2023-02-18T09:01:05;11.90;;;1.93;;
17361;SDS011;8798;51.938;4.348;2023-02-18T09:03:35;12.13;;;2.30;;
17361;SDS011;8798;51.938;4.348;2023-02-18T09:06:03;9.10;;;1.90;;
17361;SDS011;8798;51.938;4.348;2023-02-18T09:08:31;12.63;;;2.17;;
17361;SDS011;8798;51.938;4.348;2023-02-18T09:11:00;17.17;;;3.60;;
17361;SDS011;8798;51.938;4.348;2023-02-18T09:13:30;11.57;;;1.60;;
17361;SDS011;8798;51.938;4.348;2023-02-18T09:16:00;9.03;;;1.97;;
17361;SDS011;8798;51.938;4.348;2023-02-18T09:18:31;10.77;;;2.20;;
17361;SDS011;8798;51.938;4.348;2023-02-18T09:21:00;12.77;;;2.10;;
17361;SDS011;8798;51.938;4.348;2023-02-18T09:23:29;3.80;;;1.40;;
17361;SDS011;8798;51.938;4.348;2023-02-18T09:25:59;9.50;;;2.30;;
17361;SDS011;8798;51.938;4.348;2023-02-18T09:28:30;10.43;;;1.93;;
17361;SDS011;8798;51.938;4.348;2023-02-18T09:31:02;12.83;;;2.10;;
17361;SDS011;8798;51.938;4.348;2023-02-18T09:33:34;10.50;;;2.00;;
17361;SDS011;8798;51.938;4.348;2023-02-18T09:36:03;8.57;;;1.90;;
17361;SDS011;8798;51.938;4.348;2023-02-18T09:38:31;11.23;;;1.87;;
17361;SDS011;8798;51.938;4.348;2023-02-18T09:41:00;8.70;;;2.10;;
17361;SDS011;8798;51.938;4.348;2023-02-18T09:43:31;14.97;;;2.10;;
17361;SDS011;8798;51.938;4.348;2023-02-18T09:46:02;15.07;;;2.53;;
17361;SDS011;8798;51.938;4.348;2023-02-18T09:48:38;9.40;;;2.37;;
17361;SDS011;8798;51.938;4.348;2023-02-18T09:51:09;8.53;;;1.57;;
17361;SDS011;8798;51.938;4.348;2023-02-18T09:53:40;7.37;;;2.00;;
17361;SDS011;8798;51.938;4.348;2023-02-18T09:56:10;15.00;;;2.10;;
17361;SDS011;8798;51.938;4.348;2023-02-18T09:58:40;9.43;;;2.03;;
17361;SDS011;8798;51.938;4.348;2023-02-18T10:01:11;11.60;;;2.10;;
17361;SDS011;8798;51.938;4.348;2023-02-18T10:03:48;11.50;;;1.83;;
17361;SDS011;8798;51.938;4.348;2023-02-18T10:06:17;11.77;;;1.90;;
17361;SDS011;8798;51.938;4.348;2023-02-18T10:08:53;7.20;;;1.80;;
17361;SDS011;8798;51.938;4.348;2023-02-18T10:11:27;14.60;;;2.50;;
17361;SDS011;8798;51.938;4.348;2023-02-18T10:13:57;16.57;;;2.70;;
17361;SDS011;8798;51.938;4.348;2023-02-18T10:16:27;4.90;;;1.67;;
17361;SDS011;8798;51.938;4.348;2023-02-18T10:18:58;6.77;;;1.80;;
17361;SDS011;8798;51.938;4.348;2023-02-18T10:21:31;8.10;;;2.10;;
17361;SDS011;8798;51.938;4.348;2023-02-18T10:24:02;12.97;;;2.17;;
17361;SDS011;8798;51.938;4.348;2023-02-18T10:26:34;10.80;;;1.97;;
17361;SDS011;8798;51.938;4.348;2023-02-18T10:29:04;9.80;;;1.47;;
17361;SDS011;8798;51.938;4.348;2023-02-18T10:31:41;7.83;;;1.73;;
17361;SDS011;8798;51.938;4.348;2023-02-18T10:34:15;7.77;;;1.37;;
17361;SDS011;8798;51.938;4.348;2023-02-18T10:36:50;10.07;;;2.00;;
17361;SDS011;8798;51.938;4.348;2023-02-18T10:39:30;5.80;;;1.30;;
17361;SDS011;8798;51.938;4.348;2023-02-18T10:42:10;6.10;;;1.60;;
17361;SDS011;8798;51.938;4.348;2023-02-18T10:44:49;11.50;;;1.97;;
17361;SDS011;8798;51.938;4.348;2023-02-18T10:47:33;8.17;;;1.63;;
17361;SDS011;8798;51.938;4.348;2023-02-18T10:50:10;12.77;;;2.33;;
17361;SDS011;8798;51.938;4.348;2023-02-18T10:52:51;13.87;;;2.23;;
17361;SDS011;8798;51.938;4.348;2023-02-18T10:55:32;13.13;;;2.20;;
17361;SDS011;8798;51.938;4.348;2023-02-18T10:58:01;7.40;;;1.40;;
17361;SDS011;8798;51.938;4.348;2023-02-18T11:00:33;11.57;;;2.00;;
17361;SDS011;8798;51.938;4.348;2023-02-18T11:03:11;15.13;;;2.60;;
17361;SDS011;8798;51.938;4.348;2023-02-18T11:05:43;8.13;;;1.80;;
17361;SDS011;8798;51.938;4.348;2023-02-18T11:08:13;9.73;;;1.70;;
17361;SDS011;8798;51.938;4.348;2023-02-18T11:10:45;4.77;;;1.20;;
17361;SDS011;8798;51.938;4.348;2023-02-18T11:13:15;8.93;;;1.60;;
17361;SDS011;8798;51.938;4.348;2023-02-18T11:15:53;12.47;;;1.83;;
17361;SDS011;8798;51.938;4.348;2023-02-18T11:18:29;11.30;;;1.70;;
17361;SDS011;8798;51.938;4.348;2023-02-18T11:21:05;3.37;;;1.00;;
17361;SDS011;8798;51.938;4.348;2023-02-18T11:23:47;7.03;;;1.60;;
17361;SDS011;8798;51.938;4.348;2023-02-18T11:26:17;13.27;;;1.60;;
17361;SDS011;8798;51.938;4.348;2023-02-18T11:28:55;10.23;;;1.87;;
17361;SDS011;8798;51.938;4.348;2023-02-18T11:31:34;13.57;;;2.27;;
17361;SDS011;8798;51.938;4.348;2023-02-18T11:34:12;7.97;;;1.97;;
17361;SDS011;8798;51.938;4.348;2023-02-18T11:36:44;8.47;;;1.53;;
17361;SDS011;8798;51.938;4.348;2023-02-18T11:39:17;8.13;;;1.57;;
17361;SDS011;8798;51.938;4.348;2023-02-18T11:41:52;11.83;;;1.63;;
17361;SDS011;8798;51.938;4.348;2023-02-18T11:44:24;12.23;;;2.00;;
17361;SDS011;8798;51.938;4.348;2023-02-18T11:46:57;9.73;;;1.77;;
17361;SDS011;8798;51.938;4.348;2023-02-18T11:49:27;8.37;;;1.87;;
17361;SDS011;8798;51.938;4.348;2023-02-18T11:52:03;9.33;;;1.97;;
17361;SDS011;8798;51.938;4.348;2023-02-18T11:54:40;6.80;;;1.30;;
17361;SDS011;8798;51.938;4.348;2023-02-18T11:57:09;6.77;;;1.60;;
17361;SDS011;8798;51.938;4.348;2023-02-18T11:59:40;5.53;;;1.27;;
17361;SDS011;8798;51.938;4.348;2023-02-18T12:02:13;7.77;;;1.80;;
17361;SDS011;8798;51.938;4.348;2023-02-18T12:04:55;6.67;;;1.70;;
17361;SDS011;8798;51.938;4.348;2023-02-18T12:07:30;7.70;;;1.57;;
17361;SDS011;8798;51.938;4.348;2023-02-18T12:10:13;8.87;;;1.40;;
17361;SDS011;8798;51.938;4.348;2023-02-18T12:12:43;12.77;;;1.63;;
17361;SDS011;8798;51.938;4.348;2023-02-18T12:15:15;8.70;;;1.70;;
17361;SDS011;8798;51.938;4.348;2023-02-18T12:17:49;9.07;;;1.60;;
17361;SDS011;8798;51.938;4.348;2023-02-18T12:20:31;7.03;;;1.60;;
17361;SDS011;8798;51.938;4.348;2023-02-18T12:23:23;9.97;;;1.93;;
17361;SDS011;8798;51.938;4.348;2023-02-18T12:26:00;6.20;;;1.40;;
17361;SDS011;8798;51.938;4.348;2023-02-18T12:28:44;7.07;;;1.83;;
17361;SDS011;8798;51.938;4.348;2023-02-18T12:31:30;5.80;;;1.20;;
17361;SDS011;8798;51.938;4.348;2023-02-18T12:34:18;9.07;;;1.67;;
17361;SDS011;8798;51.938;4.348;2023-02-18T12:37:00;12.90;;;1.73;;
17361;SDS011;8798;51.938;4.348;2023-02-18T12:39:52;6.33;;;1.63;;
17361;SDS011;8798;51.938;4.348;2023-02-18T12:42:34;8.17;;;1.20;;
17361;SDS011;8798;51.938;4.348;2023-02-18T12:45:25;5.43;;;1.40;;
17361;SDS011;8798;51.938;4.348;2023-02-18T12:48:10;8.43;;;1.70;;
17361;SDS011;8798;51.938;4.348;2023-02-18T12:50:55;9.23;;;1.60;;
17361;SDS011;8798;51.938;4.348;2023-02-18T12:53:44;10.80;;;2.20;;
17361;SDS011;8798;51.938;4.348;2023-02-18T12:56:35;12.00;;;1.63;;
17361;SDS011;8798;51.938;4.348;2023-02-18T12:59:15;8.93;;;1.60;;
17361;SDS011;8798;51.938;4.348;2023-02-18T13:01:57;5.47;;;1.83;;
17361;SDS011;8798;51.938;4.348;2023-02-18T13:04:36;4.40;;;1.13;;
17361;SDS011;8798;51.938;4.348;2023-02-18T13:07:26;6.20;;;1.20;;
17361;SDS011;8798;51.938;4.348;2023-02-18T13:10:34;9.23;;;1.40;;
17361;SDS011;8798;51.938;4.348;2023-02-18T13:13:18;10.77;;;1.60;;
17361;SDS011;8798;51.938;4.348;2023-02-18T13:15:48;3.73;;;1.10;;
17361;SDS011;8798;51.938;4.348;2023-02-18T13:18:22;4.70;;;1.10;;
17361;SDS011;8798;51.938;4.348;2023-02-18T13:20:55;5.43;;;1.10;;
17361;SDS011;8798;51.938;4.348;2023-02-18T13:23:31;10.10;;;1.90;;
17361;SDS011;8798;51.938;4.348;2023-02-18T13:26:02;5.00;;;1.20;;
17361;SDS011;8798;51.938;4.348;2023-02-18T13:28:36;10.10;;;1.77;;
17361;SDS011;8798;51.938;4.348;2023-02-18T13:31:18;7.30;;;1.97;;
17361;SDS011;8798;51.938;4.348;2023-02-18T13:33:56;8.77;;;1.83;;
17361;SDS011;8798;51.938;4.348;2023-02-18T13:36:32;6.30;;;1.20;;
17361;SDS011;8798;51.938;4.348;2023-02-18T13:39:07;6.50;;;1.47;;
17361;SDS011;8798;51.938;4.348;2023-02-18T13:41:44;6.37;;;1.20;;
17361;SDS011;8798;51.938;4.348;2023-02-18T13:44:39;13.77;;;1.63;;
17361;SDS011;8798;51.938;4.348;2023-02-18T13:47:35;9.80;;;1.60;;
17361;SDS011;8798;51.938;4.348;2023-02-18T13:53:14;8.83;;;1.77;;
17361;SDS011;8798;51.938;4.348;2023-02-18T13:55:50;5.87;;;1.67;;
17361;SDS011;8798;51.938;4.348;2023-02-18T13:58:23;9.07;;;1.67;;
17361;SDS011;8798;51.938;4.348;2023-02-18T14:01:00;9.60;;;1.50;;
17361;SDS011;8798;51.938;4.348;2023-02-18T14:03:35;7.00;;;1.30;;
17361;SDS011;8798;51.938;4.348;2023-02-18T14:06:17;10.47;;;1.63;;
17361;SDS011;8798;51.938;4.348;2023-02-18T14:08:46;4.20;;;1.43;;
17361;SDS011;8798;51.938;4.348;2023-02-18T14:11:29;6.60;;;1.10;;
17361;SDS011;8798;51.938;4.348;2023-02-18T14:14:14;8.00;;;1.57;;
17361;SDS011;8798;51.938;4.348;2023-02-18T14:22:58;6.17;;;1.50;;
17361;SDS011;8798;51.938;4.348;2023-02-18T14:25:32;8.23;;;1.67;;
17361;SDS011;8798;51.938;4.348;2023-02-18T14:28:03;5.87;;;1.57;;
17361;SDS011;8798;51.938;4.348;2023-02-18T14:31:03;11.67;;;1.40;;
17361;SDS011;8798;51.938;4.348;2023-02-18T14:33:35;9.87;;;1.77;;
17361;SDS011;8798;51.938;4.348;2023-02-18T14:36:05;12.67;;;2.00;;
17361;SDS011;8798;51.938;4.348;2023-02-18T14:38:44;12.43;;;1.80;;
17361;SDS011;8798;51.938;4.348;2023-02-18T14:41:21;9.00;;;1.90;;
17361;SDS011;8798;51.938;4.348;2023-02-18T14:47:16;11.40;;;2.20;;
17361;SDS011;8798;51.938;4.348;2023-02-18T14:49:53;8.03;;;1.60;;
17361;SDS011;8798;51.938;4.348;2023-02-18T14:52:27;8.73;;;1.73;;
17361;SDS011;8798;51.938;4.348;2023-02-18T14:54:59;10.33;;;2.63;;
17361;SDS011;8798;51.938;4.348;2023-02-18T14:57:31;11.43;;;2.17;;
17361;SDS011;8798;51.938;4.348;2023-02-18T15:00:03;11.30;;;1.90;;
17361;SDS011;8798;51.938;4.348;2023-02-18T15:02:34;9.87;;;1.67;;
17361;SDS011;8798;51.938;4.348;2023-02-18T15:05:12;10.13;;;1.77;;
17361;SDS011;8798;51.938;4.348;2023-02-18T15:07:53;9.60;;;1.73;;
17361;SDS011;8798;51.938;4.348;2023-02-18T15:10:24;8.70;;;1.53;;
17361;SDS011;8798;51.938;4.348;2023-02-18T15:12:59;8.00;;;2.10;;
17361;SDS011;8798;51.938;4.348;2023-02-18T15:15:28;9.83;;;2.13;;
17361;SDS011;8798;51.938;4.348;2023-02-18T15:17:58;12.00;;;1.57;;
17361;SDS011;8798;51.938;4.348;2023-02-18T15:20:28;8.93;;;1.80;;
17361;SDS011;8798;51.938;4.348;2023-02-18T15:22:59;10.23;;;2.10;;
17361;SDS011;8798;51.938;4.348;2023-02-18T15:25:28;12.90;;;2.47;;
17361;SDS011;8798;51.938;4.348;2023-02-18T15:27:56;9.47;;;2.07;;
17361;SDS011;8798;51.938;4.348;2023-02-18T15:30:24;9.63;;;1.40;;
17361;SDS011;8798;51.938;4.348;2023-02-18T15:32:55;12.97;;;2.03;;
17361;SDS011;8798;51.938;4.348;2023-02-18T15:35:25;6.00;;;1.83;;
17361;SDS011;8798;51.938;4.348;2023-02-18T15:37:58;9.20;;;2.10;;
17361;SDS011;8798;51.938;4.348;2023-02-18T15:40:28;12.50;;;2.17;;
17361;SDS011;8798;51.938;4.348;2023-02-18T15:42:58;14.30;;;2.40;;